sensor_id;sensor_type;location;lat;lon;timestamp;temperature;humidity
65207;SHT31;58477;48.072;11.970;2023-04-01T00:00:24;7.49;82.60
65207;SHT31;58477;48.072;11.970;2023-04-01T00:02:50;7.48;82.90
65207;SHT31;58477;48.072;11.970;2023-04-01T00:05:15;7.48;82.66
65207;SHT31;58477;48.072;11.970;2023-04-01T00:07:42;7.43;82.86
65207;SHT31;58477;48.072;11.970;2023-04-01T00:10:10;7.42;82.99
65207;SHT31;58477;48.072;11.970;2023-04-01T00:12:36;7.42;82.73
65207;SHT31;58477;48.072;11.970;2023-04-01T00:15:03;7.42;82.66
65207;SHT31;58477;48.072;11.970;2023-04-01T00:17:29;7.39;83.01
65207;SHT31;58477;48.072;11.970;2023-04-01T00:19:55;7.33;83.29
65207;SHT31;58477;48.072;11.970;2023-04-01T00:22:22;7.29;83.31
65207;SHT31;58477;48.072;11.970;2023-04-01T00:24:48;7.29;83.42
65207;SHT31;58477;48.072;11.970;2023-04-01T00:27:14;7.26;83.33
65207;SHT31;58477;48.072;11.970;2023-04-01T00:29:43;7.20;83.59
65207;SHT31;58477;48.072;11.970;2023-04-01T00:32:09;7.09;84.08
65207;SHT31;58477;48.072;11.970;2023-04-01T00:34:35;7.08;83.96
65207;SHT31;58477;48.072;11.970;2023-04-01T00:37:00;7.09;83.98
65207;SHT31;58477;48.072;11.970;2023-04-01T00:39:29;7.06;84.36
65207;SHT31;58477;48.072;11.970;2023-04-01T00:41:54;7.01;84.37
65207;SHT31;58477;48.072;11.970;2023-04-01T00:44:27;7.01;84.65
65207;SHT31;58477;48.072;11.970;2023-04-01T00:46:53;6.99;84.77
65207;SHT31;58477;48.072;11.970;2023-04-01T00:49:21;6.98;84.59
65207;SHT31;58477;48.072;11.970;2023-04-01T00:51:50;6.96;84.59
65207;SHT31;58477;48.072;11.970;2023-04-01T00:54:18;6.95;84.72
65207;SHT31;58477;48.072;11.970;2023-04-01T00:56:48;6.95;84.64
65207;SHT31;58477;48.072;11.970;2023-04-01T00:59:23;7.04;84.36
65207;SHT31;58477;48.072;11.970;2023-04-01T01:01:49;6.96;84.33
65207;SHT31;58477;48.072;11.970;2023-04-01T01:04:33;6.92;84.66
65207;SHT31;58477;48.072;11.970;2023-04-01T01:12:48;7.08;83.93
65207;SHT31;58477;48.072;11.970;2023-04-01T01:15:25;7.06;83.97
65207;SHT31;58477;48.072;11.970;2023-04-01T01:18:12;7.11;83.95
65207;SHT31;58477;48.072;11.970;2023-04-01T01:31:28;7.16;84.32
65207;SHT31;58477;48.072;11.970;2023-04-01T01:36:45;7.14;84.34
65207;SHT31;58477;48.072;11.970;2023-04-01T01:39:13;7.16;83.91
65207;SHT31;58477;48.072;11.970;2023-04-01T01:41:41;7.18;84.30
65207;SHT31;58477;48.072;11.970;2023-04-01T01:44:09;7.28;83.51
65207;SHT31;58477;48.072;11.970;2023-04-01T01:46:38;7.26;83.59
65207;SHT31;58477;48.072;11.970;2023-04-01T01:49:06;7.26;83.30
65207;SHT31;58477;48.072;11.970;2023-04-01T01:51:32;7.29;83.39
65207;SHT31;58477;48.072;11.970;2023-04-01T01:54:00;7.25;83.18
65207;SHT31;58477;48.072;11.970;2023-04-01T01:56:27;7.32;82.97
65207;SHT31;58477;48.072;11.970;2023-04-01T01:59:00;7.30;83.23
65207;SHT31;58477;48.072;11.970;2023-04-01T02:01:28;7.33;82.90
65207;SHT31;58477;48.072;11.970;2023-04-01T02:03:59;7.28;83.14
65207;SHT31;58477;48.072;11.970;2023-04-01T02:06:27;7.25;83.33
65207;SHT31;58477;48.072;11.970;2023-04-01T02:08:57;7.23;83.39
65207;SHT31;58477;48.072;11.970;2023-04-01T02:11:30;7.20;83.43
65207;SHT31;58477;48.072;11.970;2023-04-01T02:14:03;7.15;83.81
65207;SHT31;58477;48.072;11.970;2023-04-01T02:16:40;7.14;84.03
65207;SHT31;58477;48.072;11.970;2023-04-01T02:19:10;7.14;83.84
65207;SHT31;58477;48.072;11.970;2023-04-01T02:21:39;7.20;83.48
65207;SHT31;58477;48.072;11.970;2023-04-01T02:24:08;7.20;83.40
65207;SHT31;58477;48.072;11.970;2023-04-01T02:26:34;7.15;83.68
65207;SHT31;58477;48.072;11.970;2023-04-01T02:29:00;7.15;84.03
65207;SHT31;58477;48.072;11.970;2023-04-01T02:31:27;7.11;84.20
65207;SHT31;58477;48.072;11.970;2023-04-01T02:33:53;7.16;83.86
65207;SHT31;58477;48.072;11.970;2023-04-01T02:36:19;7.15;83.87
65207;SHT31;58477;48.072;11.970;2023-04-01T02:38:46;7.19;83.79
65207;SHT31;58477;48.072;11.970;2023-04-01T02:41:13;7.18;83.57
65207;SHT31;58477;48.072;11.970;2023-04-01T02:43:38;7.16;83.62
65207;SHT31;58477;48.072;11.970;2023-04-01T02:46:03;7.26;83.26
65207;SHT31;58477;48.072;11.970;2023-04-01T02:48:29;7.22;83.65
65207;SHT31;58477;48.072;11.970;2023-04-01T02:50:55;7.23;83.32
65207;SHT31;58477;48.072;11.970;2023-04-01T02:53:21;7.30;83.07
65207;SHT31;58477;48.072;11.970;2023-04-01T02:55:47;7.33;82.60
65207;SHT31;58477;48.072;11.970;2023-04-01T02:58:15;7.33;82.96
65207;SHT31;58477;48.072;11.970;2023-04-01T03:00:41;7.33;82.65
65207;SHT31;58477;48.072;11.970;2023-04-01T03:03:07;7.32;82.59
65207;SHT31;58477;48.072;11.970;2023-04-01T03:05:32;7.32;82.75
65207;SHT31;58477;48.072;11.970;2023-04-01T03:07:58;7.28;83.09
65207;SHT31;58477;48.072;11.970;2023-04-01T03:10:23;7.28;82.71
65207;SHT31;58477;48.072;11.970;2023-04-01T03:12:49;7.26;82.72
65207;SHT31;58477;48.072;11.970;2023-04-01T03:15:14;7.29;82.84
65207;SHT31;58477;48.072;11.970;2023-04-01T03:17:41;7.26;82.97
65207;SHT31;58477;48.072;11.970;2023-04-01T03:20:08;7.19;83.08
65207;SHT31;58477;48.072;11.970;2023-04-01T03:22:36;7.20;83.16
65207;SHT31;58477;48.072;11.970;2023-04-01T03:25:04;7.23;82.58
65207;SHT31;58477;48.072;11.970;2023-04-01T03:27:30;7.26;82.75
65207;SHT31;58477;48.072;11.970;2023-04-01T03:29:55;7.22;82.95
65207;SHT31;58477;48.072;11.970;2023-04-01T03:32:21;7.18;83.17
65207;SHT31;58477;48.072;11.970;2023-04-01T03:34:46;7.08;83.19
65207;SHT31;58477;48.072;11.970;2023-04-01T03:37:12;7.05;83.67
65207;SHT31;58477;48.072;11.970;2023-04-01T03:39:37;7.15;82.89
65207;SHT31;58477;48.072;11.970;2023-04-01T03:42:03;7.16;82.93
65207;SHT31;58477;48.072;11.970;2023-04-01T03:44:33;7.05;83.47
65207;SHT31;58477;48.072;11.970;2023-04-01T03:46:59;7.02;83.43
65207;SHT31;58477;48.072;11.970;2023-04-01T03:49:26;6.92;83.76
65207;SHT31;58477;48.072;11.970;2023-04-01T03:51:51;6.95;83.87
65207;SHT31;58477;48.072;11.970;2023-04-01T03:54:18;6.92;83.63
65207;SHT31;58477;48.072;11.970;2023-04-01T03:56:45;6.94;83.20
65207;SHT31;58477;48.072;11.970;2023-04-01T03:59:11;6.81;83.82
65207;SHT31;58477;48.072;11.970;2023-04-01T04:01:37;6.83;83.77
65207;SHT31;58477;48.072;11.970;2023-04-01T04:04:03;6.80;83.76
65207;SHT31;58477;48.072;11.970;2023-04-01T04:06:28;6.94;82.89
65207;SHT31;58477;48.072;11.970;2023-04-01T04:08:54;6.91;83.15
65207;SHT31;58477;48.072;11.970;2023-04-01T04:11:21;6.96;82.91
65207;SHT31;58477;48.072;11.970;2023-04-01T04:13:48;6.92;83.27
65207;SHT31;58477;48.072;11.970;2023-04-01T04:16:15;6.89;83.42
65207;SHT31;58477;48.072;11.970;2023-04-01T04:18:45;6.88;83.54
65207;SHT31;58477;48.072;11.970;2023-04-01T04:21:12;6.83;83.62
65207;SHT31;58477;48.072;11.970;2023-04-01T04:23:38;6.74;83.90
65207;SHT31;58477;48.072;11.970;2023-04-01T04:26:10;6.73;83.92
65207;SHT31;58477;48.072;11.970;2023-04-01T04:28:35;6.65;83.82
65207;SHT31;58477;48.072;11.970;2023-04-01T04:31:02;6.67;83.93
65207;SHT31;58477;48.072;11.970;2023-04-01T04:33:31;6.60;84.17
65207;SHT31;58477;48.072;11.970;2023-04-01T04:35:57;6.55;84.22
65207;SHT31;58477;48.072;11.970;2023-04-01T04:38:24;6.65;83.83
65207;SHT31;58477;48.072;11.970;2023-04-01T04:40:50;6.53;84.30
65207;SHT31;58477;48.072;11.970;2023-04-01T04:43:17;6.53;84.52
65207;SHT31;58477;48.072;11.970;2023-04-01T04:45:43;6.64;84.20
65207;SHT31;58477;48.072;11.970;2023-04-01T04:48:14;6.65;84.47
65207;SHT31;58477;48.072;11.970;2023-04-01T04:50:49;6.67;84.28
65207;SHT31;58477;48.072;11.970;2023-04-01T04:53:17;6.70;84.26
65207;SHT31;58477;48.072;11.970;2023-04-01T04:55:48;6.73;84.27
65207;SHT31;58477;48.072;11.970;2023-04-01T04:58:25;6.68;84.19
65207;SHT31;58477;48.072;11.970;2023-04-01T05:00:52;6.67;84.41
65207;SHT31;58477;48.072;11.970;2023-04-01T05:03:22;6.64;84.73
65207;SHT31;58477;48.072;11.970;2023-04-01T05:05:52;6.68;84.50
65207;SHT31;58477;48.072;11.970;2023-04-01T05:08:18;6.75;84.17
65207;SHT31;58477;48.072;11.970;2023-04-01T05:10:44;6.74;84.35
65207;SHT31;58477;48.072;11.970;2023-04-01T05:13:11;6.74;84.27
65207;SHT31;58477;48.072;11.970;2023-04-01T05:15:36;6.78;84.06
65207;SHT31;58477;48.072;11.970;2023-04-01T05:18:03;6.78;84.31
65207;SHT31;58477;48.072;11.970;2023-04-01T05:20:28;6.83;83.97
65207;SHT31;58477;48.072;11.970;2023-04-01T05:22:58;6.89;83.91
65207;SHT31;58477;48.072;11.970;2023-04-01T05:25:24;6.92;83.76
65207;SHT31;58477;48.072;11.970;2023-04-01T05:27:49;6.98;83.77
65207;SHT31;58477;48.072;11.970;2023-04-01T05:30:15;7.01;83.67
65207;SHT31;58477;48.072;11.970;2023-04-01T05:32:57;7.14;82.92
65207;SHT31;58477;48.072;11.970;2023-04-01T05:35:23;7.14;83.06
65207;SHT31;58477;48.072;11.970;2023-04-01T05:37:49;7.19;82.76
65207;SHT31;58477;48.072;11.970;2023-04-01T05:40:15;7.20;82.80
65207;SHT31;58477;48.072;11.970;2023-04-01T05:42:41;7.23;82.82
65207;SHT31;58477;48.072;11.970;2023-04-01T05:45:07;7.25;82.68
65207;SHT31;58477;48.072;11.970;2023-04-01T05:47:51;7.23;82.42
65207;SHT31;58477;48.072;11.970;2023-04-01T05:50:17;7.30;81.98
65207;SHT31;58477;48.072;11.970;2023-04-01T05:52:43;7.36;82.27
65207;SHT31;58477;48.072;11.970;2023-04-01T05:55:09;7.40;81.99
65207;SHT31;58477;48.072;11.970;2023-04-01T05:57:35;7.58;81.61
65207;SHT31;58477;48.072;11.970;2023-04-01T06:00:04;7.79;80.89
65207;SHT31;58477;48.072;11.970;2023-04-01T06:02:37;7.76;80.50
65207;SHT31;58477;48.072;11.970;2023-04-01T06:05:20;7.94;80.55
65207;SHT31;58477;48.072;11.970;2023-04-01T06:07:46;8.61;79.49
65207;SHT31;58477;48.072;11.970;2023-04-01T06:10:17;9.06;77.38
65207;SHT31;58477;48.072;11.970;2023-04-01T06:12:52;9.10;77.36
65207;SHT31;58477;48.072;11.970;2023-04-01T06:25:53;9.08;77.36
65207;SHT31;58477;48.072;11.970;2023-04-01T06:37:46;9.37;75.45
65207;SHT31;58477;48.072;11.970;2023-04-01T06:42:55;9.57;75.01
65207;SHT31;58477;48.072;11.970;2023-04-01T06:46:25;9.78;73.30
65207;SHT31;58477;48.072;11.970;2023-04-01T06:58:24;9.95;74.17
65207;SHT31;58477;48.072;11.970;2023-04-01T07:00:56;10.51;72.76
65207;SHT31;58477;48.072;11.970;2023-04-01T07:03:39;10.51;72.66
65207;SHT31;58477;48.072;11.970;2023-04-01T07:06:16;10.39;70.93
65207;SHT31;58477;48.072;11.970;2023-04-01T07:08:53;10.04;73.12
65207;SHT31;58477;48.072;11.970;2023-04-01T07:11:26;10.28;71.93
65207;SHT31;58477;48.072;11.970;2023-04-01T07:14:29;11.77;69.06
65207;SHT31;58477;48.072;11.970;2023-04-01T07:17:10;12.17;67.73
65207;SHT31;58477;48.072;11.970;2023-04-01T07:19:53;11.27;67.90
65207;SHT31;58477;48.072;11.970;2023-04-01T07:22:33;10.59;69.89
65207;SHT31;58477;48.072;11.970;2023-04-01T07:25:22;10.55;70.60
65207;SHT31;58477;48.072;11.970;2023-04-01T07:28:03;10.48;71.47
65207;SHT31;58477;48.072;11.970;2023-04-01T07:33:38;9.78;73.82
65207;SHT31;58477;48.072;11.970;2023-04-01T07:41:39;9.39;75.03
65207;SHT31;58477;48.072;11.970;2023-04-01T07:44:08;9.09;75.73
65207;SHT31;58477;48.072;11.970;2023-04-01T07:46:46;9.22;75.77
65207;SHT31;58477;48.072;11.970;2023-04-01T07:49:34;9.09;74.91
65207;SHT31;58477;48.072;11.970;2023-04-01T07:52:21;9.13;74.52
65207;SHT31;58477;48.072;11.970;2023-04-01T07:54:59;9.63;73.36
65207;SHT31;58477;48.072;11.970;2023-04-01T08:00:23;9.87;72.15
65207;SHT31;58477;48.072;11.970;2023-04-01T08:06:27;10.01;71.21
65207;SHT31;58477;48.072;11.970;2023-04-01T08:09:06;9.80;72.62
65207;SHT31;58477;48.072;11.970;2023-04-01T08:12:08;9.53;72.65
65207;SHT31;58477;48.072;11.970;2023-04-01T08:15:29;9.64;74.13
65207;SHT31;58477;48.072;11.970;2023-04-01T08:18:59;10.09;73.44
65207;SHT31;58477;48.072;11.970;2023-04-01T08:21:42;9.74;72.18
65207;SHT31;58477;48.072;11.970;2023-04-01T08:24:34;9.93;72.66
65207;SHT31;58477;48.072;11.970;2023-04-01T08:27:05;9.87;72.00
65207;SHT31;58477;48.072;11.970;2023-04-01T08:30:06;9.70;71.90
65207;SHT31;58477;48.072;11.970;2023-04-01T08:32:44;9.69;72.47
65207;SHT31;58477;48.072;11.970;2023-04-01T08:35:29;9.69;72.52
65207;SHT31;58477;48.072;11.970;2023-04-01T08:38:01;9.54;72.29
65207;SHT31;58477;48.072;11.970;2023-04-01T08:49:22;10.35;70.39
65207;SHT31;58477;48.072;11.970;2023-04-01T08:54:41;11.98;68.46
65207;SHT31;58477;48.072;11.970;2023-04-01T09:06:48;12.41;64.49
65207;SHT31;58477;48.072;11.970;2023-04-01T09:14:32;12.36;64.57
65207;SHT31;58477;48.072;11.970;2023-04-01T09:29:02;11.30;67.06
65207;SHT31;58477;48.072;11.970;2023-04-01T09:34:57;11.13;67.58
65207;SHT31;58477;48.072;11.970;2023-04-01T09:37:41;11.63;67.60
65207;SHT31;58477;48.072;11.970;2023-04-01T09:40:23;11.53;66.82
65207;SHT31;58477;48.072;11.970;2023-04-01T09:43:30;12.75;65.61
65207;SHT31;58477;48.072;11.970;2023-04-01T09:46:52;12.53;63.33
65207;SHT31;58477;48.072;11.970;2023-04-01T09:52:10;11.87;65.80
65207;SHT31;58477;48.072;11.970;2023-04-01T09:54:45;11.81;65.48
65207;SHT31;58477;48.072;11.970;2023-04-01T10:36:53;11.64;65.57
65207;SHT31;58477;48.072;11.970;2023-04-01T10:43:25;12.04;64.91
65207;SHT31;58477;48.072;11.970;2023-04-01T10:52:04;11.70;65.15
65207;SHT31;58477;48.072;11.970;2023-04-01T10:58:45;11.78;65.85
65207;SHT31;58477;48.072;11.970;2023-04-01T11:01:41;11.97;65.69
65207;SHT31;58477;48.072;11.970;2023-04-01T11:08:18;11.91;65.02
65207;SHT31;58477;48.072;11.970;2023-04-01T11:22:32;11.24;68.84
65207;SHT31;58477;48.072;11.970;2023-04-01T11:25:46;11.28;67.97
65207;SHT31;58477;48.072;11.970;2023-04-01T11:28:56;10.99;67.58
65207;SHT31;58477;48.072;11.970;2023-04-01T11:31:37;10.88;69.05
65207;SHT31;58477;48.072;11.970;2023-04-01T11:42:40;10.27;74.89
65207;SHT31;58477;48.072;11.970;2023-04-01T11:45:36;10.17;75.01
65207;SHT31;58477;48.072;11.970;2023-04-01T11:51:10;10.46;73.53
65207;SHT31;58477;48.072;11.970;2023-04-01T11:59:47;10.91;71.48
65207;SHT31;58477;48.072;11.970;2023-04-01T12:02:35;10.69;71.84
65207;SHT31;58477;48.072;11.970;2023-04-01T12:08:09;10.69;72.26
65207;SHT31;58477;48.072;11.970;2023-04-01T12:13:32;10.24;74.68
65207;SHT31;58477;48.072;11.970;2023-04-01T12:23:45;9.08;82.73
65207;SHT31;58477;48.072;11.970;2023-04-01T12:30:25;9.51;80.83
65207;SHT31;58477;48.072;11.970;2023-04-01T12:33:04;9.42;80.78
65207;SHT31;58477;48.072;11.970;2023-04-01T12:44:26;8.67;83.46
65207;SHT31;58477;48.072;11.970;2023-04-01T12:55:49;8.75;85.03
65207;SHT31;58477;48.072;11.970;2023-04-01T13:01:28;8.49;85.73
65207;SHT31;58477;48.072;11.970;2023-04-01T13:04:25;8.40;85.30
65207;SHT31;58477;48.072;11.970;2023-04-01T13:15:51;8.25;85.38
65207;SHT31;58477;48.072;11.970;2023-04-01T13:21:40;8.15;86.66
65207;SHT31;58477;48.072;11.970;2023-04-01T13:23:47;8.17;87.06
65207;SHT31;58477;48.072;11.970;2023-04-01T13:29:11;7.95;87.46
65207;SHT31;58477;48.072;11.970;2023-04-01T13:43:07;7.97;87.02
65207;SHT31;58477;48.072;11.970;2023-04-01T13:48:18;7.93;87.17
65207;SHT31;58477;48.072;11.970;2023-04-01T13:54:21;7.87;87.32
65207;SHT31;58477;48.072;11.970;2023-04-01T14:04:42;7.63;87.15
65207;SHT31;58477;48.072;11.970;2023-04-01T14:07:50;7.66;87.76
65207;SHT31;58477;48.072;11.970;2023-04-01T14:12:57;7.59;87.53
65207;SHT31;58477;48.072;11.970;2023-04-01T14:35:31;8.00;86.56
65207;SHT31;58477;48.072;11.970;2023-04-01T14:38:04;8.03;86.09
65207;SHT31;58477;48.072;11.970;2023-04-01T14:56:41;8.00;86.05
65207;SHT31;58477;48.072;11.970;2023-04-01T15:10:42;8.03;86.60
65207;SHT31;58477;48.072;11.970;2023-04-01T15:13:18;8.07;85.48
65207;SHT31;58477;48.072;11.970;2023-04-01T15:16:24;8.15;85.86
65207;SHT31;58477;48.072;11.970;2023-04-01T15:19:20;8.30;85.79
65207;SHT31;58477;48.072;11.970;2023-04-01T15:22:24;8.27;85.63
65207;SHT31;58477;48.072;11.970;2023-04-01T15:39:10;8.28;84.20
65207;SHT31;58477;48.072;11.970;2023-04-01T15:50:21;8.24;85.02
65207;SHT31;58477;48.072;11.970;2023-04-01T16:09:41;8.37;86.04
65207;SHT31;58477;48.072;11.970;2023-04-01T16:20:52;8.33;84.36
65207;SHT31;58477;48.072;11.970;2023-04-01T16:23:58;8.34;84.13
65207;SHT31;58477;48.072;11.970;2023-04-01T16:26:29;8.41;83.45
65207;SHT31;58477;48.072;11.970;2023-04-01T16:29:12;8.33;84.38
65207;SHT31;58477;48.072;11.970;2023-04-01T16:32:04;8.28;83.92
65207;SHT31;58477;48.072;11.970;2023-04-01T16:51:19;8.34;83.50
65207;SHT31;58477;48.072;11.970;2023-04-01T16:53:49;8.28;84.21
65207;SHT31;58477;48.072;11.970;2023-04-01T17:04:37;8.14;84.60
65207;SHT31;58477;48.072;11.970;2023-04-01T17:20:32;8.01;83.92
65207;SHT31;58477;48.072;11.970;2023-04-01T17:23:28;8.00;83.45
65207;SHT31;58477;48.072;11.970;2023-04-01T17:26:08;8.04;83.10
65207;SHT31;58477;48.072;11.970;2023-04-01T17:34:46;8.00;82.22
65207;SHT31;58477;48.072;11.970;2023-04-01T17:40:29;7.97;81.33
65207;SHT31;58477;48.072;11.970;2023-04-01T17:45:54;7.91;81.60
65207;SHT31;58477;48.072;11.970;2023-04-01T17:49:17;7.89;81.70
65207;SHT31;58477;48.072;11.970;2023-04-01T17:51:55;7.94;81.23
65207;SHT31;58477;48.072;11.970;2023-04-01T18:00:36;7.98;80.57
65207;SHT31;58477;48.072;11.970;2023-04-01T18:02:53;8.03;79.85
65207;SHT31;58477;48.072;11.970;2023-04-01T18:08:26;8.01;80.20
65207;SHT31;58477;48.072;11.970;2023-04-01T18:22:41;7.98;80.53
65207;SHT31;58477;48.072;11.970;2023-04-01T18:25:35;7.98;80.28
65207;SHT31;58477;48.072;11.970;2023-04-01T18:30:49;8.07;79.53
65207;SHT31;58477;48.072;11.970;2023-04-01T18:36:47;8.07;79.38
65207;SHT31;58477;48.072;11.970;2023-04-01T18:39:19;8.11;79.48
65207;SHT31;58477;48.072;11.970;2023-04-01T18:44:47;8.00;79.84
65207;SHT31;58477;48.072;11.970;2023-04-01T18:47:47;8.03;80.04
65207;SHT31;58477;48.072;11.970;2023-04-01T18:50:26;7.97;80.13
65207;SHT31;58477;48.072;11.970;2023-04-01T18:55:51;8.03;79.93
65207;SHT31;58477;48.072;11.970;2023-04-01T18:58:25;7.91;81.10
65207;SHT31;58477;48.072;11.970;2023-04-01T19:06:51;7.86;81.03
65207;SHT31;58477;48.072;11.970;2023-04-01T19:20:27;7.84;81.56
65207;SHT31;58477;48.072;11.970;2023-04-01T19:31:12;7.83;82.45
65207;SHT31;58477;48.072;11.970;2023-04-01T19:36:26;7.76;82.93
65207;SHT31;58477;48.072;11.970;2023-04-01T19:39:16;7.77;82.82
65207;SHT31;58477;48.072;11.970;2023-04-01T19:44:50;7.63;83.59
65207;SHT31;58477;48.072;11.970;2023-04-01T19:47:44;7.73;82.83
65207;SHT31;58477;48.072;11.970;2023-04-01T19:50:43;7.73;82.66
65207;SHT31;58477;48.072;11.970;2023-04-01T19:53:59;7.73;82.73
65207;SHT31;58477;48.072;11.970;2023-04-01T19:56:18;7.73;82.54
65207;SHT31;58477;48.072;11.970;2023-04-01T19:59:09;7.77;82.67
65207;SHT31;58477;48.072;11.970;2023-04-01T20:01:47;7.72;82.71
65207;SHT31;58477;48.072;11.970;2023-04-01T20:07:07;7.70;82.87
65207;SHT31;58477;48.072;11.970;2023-04-01T20:09:59;7.67;82.72
65207;SHT31;58477;48.072;11.970;2023-04-01T20:15:45;7.62;83.00
65207;SHT31;58477;48.072;11.970;2023-04-01T20:20:54;7.58;82.59
65207;SHT31;58477;48.072;11.970;2023-04-01T20:23:40;7.52;82.76
65207;SHT31;58477;48.072;11.970;2023-04-01T20:26:13;7.48;82.74
65207;SHT31;58477;48.072;11.970;2023-04-01T20:29:18;7.39;83.04
65207;SHT31;58477;48.072;11.970;2023-04-01T20:32:04;7.29;83.17
65207;SHT31;58477;48.072;11.970;2023-04-01T20:37:57;7.33;82.79
65207;SHT31;58477;48.072;11.970;2023-04-01T20:43:44;7.29;82.95
65207;SHT31;58477;48.072;11.970;2023-04-01T20:46:33;7.23;83.65
65207;SHT31;58477;48.072;11.970;2023-04-01T20:49:30;7.22;83.20
65207;SHT31;58477;48.072;11.970;2023-04-01T20:57:55;7.23;83.17
65207;SHT31;58477;48.072;11.970;2023-04-01T21:00:37;7.30;83.04
65207;SHT31;58477;48.072;11.970;2023-04-01T21:12:20;7.42;82.88
65207;SHT31;58477;48.072;11.970;2023-04-01T21:17:37;7.42;83.08
65207;SHT31;58477;48.072;11.970;2023-04-01T21:20:25;7.35;83.46
65207;SHT31;58477;48.072;11.970;2023-04-01T21:26:19;7.45;83.14
65207;SHT31;58477;48.072;11.970;2023-04-01T21:34:25;7.46;82.58
65207;SHT31;58477;48.072;11.970;2023-04-01T21:37:22;7.40;82.98
65207;SHT31;58477;48.072;11.970;2023-04-01T21:43:06;7.39;83.02
65207;SHT31;58477;48.072;11.970;2023-04-01T21:46:07;7.40;82.85
65207;SHT31;58477;48.072;11.970;2023-04-01T22:11:12;7.46;82.51
65207;SHT31;58477;48.072;11.970;2023-04-01T22:14:09;7.45;82.28
65207;SHT31;58477;48.072;11.970;2023-04-01T22:16:59;7.39;82.79
65207;SHT31;58477;48.072;11.970;2023-04-01T22:22:27;7.42;82.73
65207;SHT31;58477;48.072;11.970;2023-04-01T22:27:38;7.42;82.76
65207;SHT31;58477;48.072;11.970;2023-04-01T22:32:44;7.43;83.14
65207;SHT31;58477;48.072;11.970;2023-04-01T22:35:39;7.39;83.00
65207;SHT31;58477;48.072;11.970;2023-04-01T22:40:42;7.48;82.57
65207;SHT31;58477;48.072;11.970;2023-04-01T22:43:18;7.43;82.81
65207;SHT31;58477;48.072;11.970;2023-04-01T22:48:40;7.33;82.95
65207;SHT31;58477;48.072;11.970;2023-04-01T22:51:19;7.42;82.64
65207;SHT31;58477;48.072;11.970;2023-04-01T22:54:11;7.29;83.15
65207;SHT31;58477;48.072;11.970;2023-04-01T22:57:05;7.39;82.86
65207;SHT31;58477;48.072;11.970;2023-04-01T22:59:46;7.35;83.18
65207;SHT31;58477;48.072;11.970;2023-04-01T23:02:14;7.38;83.26
65207;SHT31;58477;48.072;11.970;2023-04-01T23:04:43;7.38;83.12
65207;SHT31;58477;48.072;11.970;2023-04-01T23:10:03;7.30;83.27
65207;SHT31;58477;48.072;11.970;2023-04-01T23:12:32;7.33;83.15
65207;SHT31;58477;48.072;11.970;2023-04-01T23:15:00;7.35;82.66
65207;SHT31;58477;48.072;11.970;2023-04-01T23:17:50;7.33;83.11
65207;SHT31;58477;48.072;11.970;2023-04-01T23:20:22;7.33;82.98
65207;SHT31;58477;48.072;11.970;2023-04-01T23:28:58;7.19;83.58
65207;SHT31;58477;48.072;11.970;2023-04-01T23:31:47;7.16;83.81
65207;SHT31;58477;48.072;11.970;2023-04-01T23:36:50;7.18;83.67
65207;SHT31;58477;48.072;11.970;2023-04-01T23:39:30;7.15;83.73
65207;SHT31;58477;48.072;11.970;2023-04-01T23:42:06;7.19;84.11
65207;SHT31;58477;48.072;11.970;2023-04-01T23:44:33;7.22;83.56
65207;SHT31;58477;48.072;11.970;2023-04-01T23:47:01;7.20;83.35
65207;SHT31;58477;48.072;11.970;2023-04-01T23:49:32;7.20;83.80
65207;SHT31;58477;48.072;11.970;2023-04-01T23:52:02;7.23;83.35
65207;SHT31;58477;48.072;11.970;2023-04-01T23:54:44;7.23;83.06
65207;SHT31;58477;48.072;11.970;2023-04-01T23:57:15;7.23;83.50
65207;SHT31;58477;48.072;11.970;2023-04-01T23:59:41;7.19;83.53
